Погода Сарыкемерна 2 недели

Жамбылская область, Казахстан

25 июля-07 августа
  • 25июля
    Сегодня
    +24°
    +37°
    Ясно и безоблачно
    ВремяПогодаТемператураВлажностьДавлениеВетер, м/сВероятность осадков
    02:00Ясно и безоблачно+23°C39 %703 мм1.3 м/с2 %
    05:00Ясно и безоблачно+22°C43 %703 мм1.9 м/с2 %
    08:00Ясно и безоблачно+28°C31 %705 мм0.5 м/с2 %
    11:00Ясно и безоблачно+34°C20 %705 мм2.2 м/с2 %
    14:00Ясно и безоблачно+36°C17 %704 мм3.1 м/с1 %
    17:00Ясно и безоблачно+36°C18 %704 мм4.7 м/с2 %
    20:00Ясно и безоблачно+31°C27 %704 мм1.1 м/с2 %
    23:00Ясно и безоблачно+27°C32 %704 мм1.6 м/с2 %
  • 26июля
    Пятница
    +21°
    +39°
    Практически безоблачно
    ВремяПогодаТемператураВлажностьДавлениеВетер, м/сВероятность осадков
    02:00Ясно и безоблачно+25°C30 %703 мм2.1 м/с2 %
    05:00Ясно и безоблачно+25°C35 %704 мм3.0 м/с2 %
    08:00Ясно и безоблачно+31°C25 %706 мм2.6 м/с2 %
    11:00Ясно и безоблачно+37°C13 %706 мм3.2 м/с2 %
    14:00Практически безоблачно+39°C12 %706 мм5.6 м/с2 %
    17:00Ясно и безоблачно+38°C14 %706 мм5.8 м/с2 %
    20:00Ясно и безоблачно+33°C26 %706 мм2.5 м/с2 %
    23:00Ясно и безоблачно+26°C27 %707 мм0.4 м/с2 %
  • 27июля
    Суббота
    +21°
    +36°
    Ясно и безоблачно
    ВремяПогодаТемператураВлажностьДавлениеВетер, м/сВероятность осадков
    02:00Ясно и безоблачно+24°C41 %708 мм0.4 м/с2 %
    05:00Ясно и безоблачно+22°C51 %708 мм0.6 м/с2 %
    08:00Ясно и безоблачно+25°C32 %710 мм0.0 м/с2 %
    11:00Ясно и безоблачно+30°C21 %709 мм1.1 м/с2 %
    14:00Ясно и безоблачно+34°C19 %709 мм2.9 м/с2 %
    17:00Ясно и безоблачно+35°C19 %708 мм3.6 м/с2 %
    20:00Ясно и безоблачно+31°C30 %708 мм1.7 м/с2 %
    23:00Ясно и безоблачно+26°C34 %708 мм0.0 м/с2 %
  • 28июля
    Воскресенье
    +19°
    +36°
    Ясно и безоблачно
    ВремяПогодаТемператураВлажностьДавлениеВетер, м/сВероятность осадков
    02:00Ясно и безоблачно+23°C38 %708 мм0.0 м/с2 %
    05:00Ясно и безоблачно+21°C46 %708 мм0.7 м/с2 %
    08:00Ясно и безоблачно+26°C31 %710 мм0.6 м/с2 %
    11:00Ясно и безоблачно+31°C22 %710 мм1.0 м/с2 %
    14:00Ясно и безоблачно+35°C18 %710 мм2.8 м/с2 %
    17:00Ясно и безоблачно+35°C17 %709 мм3.6 м/с2 %
    20:00Ясно и безоблачно+31°C21 %709 мм1.5 м/с2 %
    23:00Ясно и безоблачно+26°C22 %709 мм0.0 м/с2 %
  • 29июля
    Понедельник
    +19°
    +35°
    Ясно и безоблачно
    ВремяПогодаТемператураВлажностьДавлениеВетер, м/сВероятность осадков
    02:00Ясно и безоблачно+22°C28 %709 мм0.1 м/с2 %
    05:00Ясно и безоблачно+20°C37 %709 мм0.3 м/с2 %
    08:00Ясно и безоблачно+24°C28 %710 мм0.0 м/с2 %
    11:00Ясно и безоблачно+30°C20 %710 мм1.3 м/с2 %
    14:00Ясно и безоблачно+34°C16 %709 мм2.5 м/с2 %
    17:00Ясно и безоблачно+34°C15 %709 мм4.0 м/с2 %
    20:00Ясно и безоблачно+30°C24 %708 мм1.7 м/с2 %
    23:00Ясно и безоблачно+24°C24 %708 мм0.0 м/с2 %
Мы используем cookies
Соглашаюсь